sensor_id;sensor_type;location;lat;lon;timestamp;temperature;humidity
9116;DHT22;4593;53.652;10.168;2023-04-28T00:01:06;5.80;87.10
9116;DHT22;4593;53.652;10.168;2023-04-28T00:03:32;5.90;86.70
9116;DHT22;4593;53.652;10.168;2023-04-28T00:05:57;5.90;86.60
9116;DHT22;4593;53.652;10.168;2023-04-28T00:08:23;5.90;86.30
9116;DHT22;4593;53.652;10.168;2023-04-28T00:10:51;5.80;86.00
9116;DHT22;4593;53.652;10.168;2023-04-28T00:13:17;5.80;86.10
9116;DHT22;4593;53.652;10.168;2023-04-28T00:15:43;5.80;86.00
9116;DHT22;4593;53.652;10.168;2023-04-28T00:18:08;5.80;86.30
9116;DHT22;4593;53.652;10.168;2023-04-28T00:20:34;5.70;86.20
9116;DHT22;4593;53.652;10.168;2023-04-28T00:23:00;5.70;86.40
9116;DHT22;4593;53.652;10.168;2023-04-28T00:25:25;5.70;86.80
9116;DHT22;4593;53.652;10.168;2023-04-28T00:27:51;5.70;86.80
9116;DHT22;4593;53.652;10.168;2023-04-28T00:30:17;5.70;87.10
9116;DHT22;4593;53.652;10.168;2023-04-28T00:32:42;5.70;87.10
9116;DHT22;4593;53.652;10.168;2023-04-28T00:35:08;5.60;87.20
9116;DHT22;4593;53.652;10.168;2023-04-28T00:37:38;5.60;86.90
9116;DHT22;4593;53.652;10.168;2023-04-28T00:40:04;5.60;86.90
9116;DHT22;4593;53.652;10.168;2023-04-28T00:42:30;5.60;86.90
9116;DHT22;4593;53.652;10.168;2023-04-28T00:44:56;5.60;87.00
9116;DHT22;4593;53.652;10.168;2023-04-28T00:47:22;5.60;87.20
9116;DHT22;4593;53.652;10.168;2023-04-28T00:49:48;5.50;87.40
9116;DHT22;4593;53.652;10.168;2023-04-28T00:52:14;5.50;87.40
9116;DHT22;4593;53.652;10.168;2023-04-28T00:54:40;5.40;87.50
9116;DHT22;4593;53.652;10.168;2023-04-28T00:57:09;5.40;87.20
9116;DHT22;4593;53.652;10.168;2023-04-28T00:59:35;5.40;87.30
9116;DHT22;4593;53.652;10.168;2023-04-28T01:02:01;5.40;87.10
9116;DHT22;4593;53.652;10.168;2023-04-28T01:04:28;5.40;87.20
9116;DHT22;4593;53.652;10.168;2023-04-28T01:06:54;5.30;87.30
9116;DHT22;4593;53.652;10.168;2023-04-28T01:09:21;5.30;87.30
9116;DHT22;4593;53.652;10.168;2023-04-28T01:11:47;5.20;87.30
9116;DHT22;4593;53.652;10.168;2023-04-28T01:14:13;5.10;87.60
9116;DHT22;4593;53.652;10.168;2023-04-28T01:16:38;5.00;87.60
9116;DHT22;4593;53.652;10.168;2023-04-28T01:19:12;4.90;88.10
9116;DHT22;4593;53.652;10.168;2023-04-28T01:21:40;4.80;88.30
9116;DHT22;4593;53.652;10.168;2023-04-28T01:24:06;4.70;88.60
9116;DHT22;4593;53.652;10.168;2023-04-28T01:26:32;4.70;88.70
9116;DHT22;4593;53.652;10.168;2023-04-28T01:28:58;4.60;89.00
9116;DHT22;4593;53.652;10.168;2023-04-28T01:31:24;4.50;89.50
9116;DHT22;4593;53.652;10.168;2023-04-28T01:33:50;4.50;89.50
9116;DHT22;4593;53.652;10.168;2023-04-28T01:36:16;4.40;89.40
9116;DHT22;4593;53.652;10.168;2023-04-28T01:38:41;4.40;89.70
9116;DHT22;4593;53.652;10.168;2023-04-28T01:41:07;4.30;89.90
9116;DHT22;4593;53.652;10.168;2023-04-28T01:43:33;4.30;90.10
9116;DHT22;4593;53.652;10.168;2023-04-28T01:45:58;4.20;90.20
9116;DHT22;4593;53.652;10.168;2023-04-28T01:48:24;4.20;90.40
9116;DHT22;4593;53.652;10.168;2023-04-28T01:50:50;4.20;90.50
9116;DHT22;4593;53.652;10.168;2023-04-28T01:53:16;4.10;90.70
9116;DHT22;4593;53.652;10.168;2023-04-28T01:55:45;4.10;90.80
9116;DHT22;4593;53.652;10.168;2023-04-28T01:58:11;4.10;90.90
9116;DHT22;4593;53.652;10.168;2023-04-28T02:00:37;4.00;91.00
9116;DHT22;4593;53.652;10.168;2023-04-28T02:03:03;3.90;91.40
9116;DHT22;4593;53.652;10.168;2023-04-28T02:05:28;3.90;91.70
9116;DHT22;4593;53.652;10.168;2023-04-28T02:07:54;3.90;91.70
9116;DHT22;4593;53.652;10.168;2023-04-28T02:10:20;3.90;91.60
9116;DHT22;4593;53.652;10.168;2023-04-28T02:12:46;3.80;91.70
9116;DHT22;4593;53.652;10.168;2023-04-28T02:15:11;3.80;91.70
9116;DHT22;4593;53.652;10.168;2023-04-28T02:17:37;3.80;91.70
9116;DHT22;4593;53.652;10.168;2023-04-28T02:20:03;3.80;91.60
9116;DHT22;4593;53.652;10.168;2023-04-28T02:22:29;3.80;91.70
9116;DHT22;4593;53.652;10.168;2023-04-28T02:24:55;3.80;91.70
9116;DHT22;4593;53.652;10.168;2023-04-28T02:27:21;3.70;91.70
9116;DHT22;4593;53.652;10.168;2023-04-28T02:29:47;3.70;91.80
9116;DHT22;4593;53.652;10.168;2023-04-28T02:32:13;3.70;91.80
9116;DHT22;4593;53.652;10.168;2023-04-28T02:34:38;3.70;91.90
9116;DHT22;4593;53.652;10.168;2023-04-28T02:37:04;3.60;91.90
9116;DHT22;4593;53.652;10.168;2023-04-28T02:39:30;3.60;91.90
9116;DHT22;4593;53.652;10.168;2023-04-28T02:41:57;3.60;91.90
9116;DHT22;4593;53.652;10.168;2023-04-28T02:44:23;3.50;92.00
9116;DHT22;4593;53.652;10.168;2023-04-28T02:46:49;3.50;92.20
9116;DHT22;4593;53.652;10.168;2023-04-28T02:49:15;3.50;92.30
9116;DHT22;4593;53.652;10.168;2023-04-28T02:51:41;3.40;92.10
9116;DHT22;4593;53.652;10.168;2023-04-28T02:54:06;3.40;92.20
9116;DHT22;4593;53.652;10.168;2023-04-28T02:56:33;3.40;92.40
9116;DHT22;4593;53.652;10.168;2023-04-28T02:58:59;3.40;92.30
9116;DHT22;4593;53.652;10.168;2023-04-28T03:01:24;3.30;92.50
9116;DHT22;4593;53.652;10.168;2023-04-28T03:03:50;3.30;92.50
9116;DHT22;4593;53.652;10.168;2023-04-28T03:06:16;3.30;92.70
9116;DHT22;4593;53.652;10.168;2023-04-28T03:08:41;3.20;93.00
9116;DHT22;4593;53.652;10.168;2023-04-28T03:11:07;3.20;92.90
9116;DHT22;4593;53.652;10.168;2023-04-28T03:13:33;3.20;92.80
9116;DHT22;4593;53.652;10.168;2023-04-28T03:16:00;3.10;93.00
9116;DHT22;4593;53.652;10.168;2023-04-28T03:18:26;3.10;93.20
9116;DHT22;4593;53.652;10.168;2023-04-28T03:20:51;3.10;93.40
9116;DHT22;4593;53.652;10.168;2023-04-28T03:23:17;3.10;93.30
9116;DHT22;4593;53.652;10.168;2023-04-28T03:25:43;3.10;93.30
9116;DHT22;4593;53.652;10.168;2023-04-28T03:28:08;3.00;93.50
9116;DHT22;4593;53.652;10.168;2023-04-28T03:30:35;3.10;93.40
9116;DHT22;4593;53.652;10.168;2023-04-28T03:33:00;3.00;93.60
9116;DHT22;4593;53.652;10.168;2023-04-28T03:35:26;3.00;93.90
9116;DHT22;4593;53.652;10.168;2023-04-28T03:37:52;3.00;93.50
9116;DHT22;4593;53.652;10.168;2023-04-28T03:40:18;3.00;93.60
9116;DHT22;4593;53.652;10.168;2023-04-28T03:42:44;2.90;93.90
9116;DHT22;4593;53.652;10.168;2023-04-28T03:45:10;2.90;93.90
9116;DHT22;4593;53.652;10.168;2023-04-28T03:47:35;2.90;93.70
9116;DHT22;4593;53.652;10.168;2023-04-28T03:50:01;2.90;93.80
9116;DHT22;4593;53.652;10.168;2023-04-28T03:52:27;2.90;93.90
9116;DHT22;4593;53.652;10.168;2023-04-28T03:54:53;2.90;94.20
9116;DHT22;4593;53.652;10.168;2023-04-28T03:57:18;2.90;94.20
9116;DHT22;4593;53.652;10.168;2023-04-28T03:59:44;2.90;94.10
9116;DHT22;4593;53.652;10.168;2023-04-28T04:02:10;2.90;94.30
9116;DHT22;4593;53.652;10.168;2023-04-28T04:04:35;3.00;94.20
9116;DHT22;4593;53.652;10.168;2023-04-28T04:07:01;3.00;93.90
9116;DHT22;4593;53.652;10.168;2023-04-28T04:09:27;3.00;94.10
9116;DHT22;4593;53.652;10.168;2023-04-28T04:11:52;3.00;94.10
9116;DHT22;4593;53.652;10.168;2023-04-28T04:14:18;3.10;93.80
9116;DHT22;4593;53.652;10.168;2023-04-28T04:16:45;3.10;93.60
9116;DHT22;4593;53.652;10.168;2023-04-28T04:19:12;3.20;93.50
9116;DHT22;4593;53.652;10.168;2023-04-28T04:21:37;3.20;93.50
9116;DHT22;4593;53.652;10.168;2023-04-28T04:24:03;3.30;93.20
9116;DHT22;4593;53.652;10.168;2023-04-28T04:26:29;3.30;92.90
9116;DHT22;4593;53.652;10.168;2023-04-28T04:28:54;3.40;92.70
9116;DHT22;4593;53.652;10.168;2023-04-28T04:31:20;3.40;92.50
9116;DHT22;4593;53.652;10.168;2023-04-28T04:33:47;3.50;92.10
9116;DHT22;4593;53.652;10.168;2023-04-28T04:36:12;3.50;91.60
9116;DHT22;4593;53.652;10.168;2023-04-28T04:38:38;3.60;91.60
9116;DHT22;4593;53.652;10.168;2023-04-28T04:41:04;3.70;91.00
9116;DHT22;4593;53.652;10.168;2023-04-28T04:43:30;3.80;90.60
9116;DHT22;4593;53.652;10.168;2023-04-28T04:45:55;3.80;90.10
9116;DHT22;4593;53.652;10.168;2023-04-28T04:48:21;3.90;89.60
9116;DHT22;4593;53.652;10.168;2023-04-28T04:50:47;3.90;88.80
9116;DHT22;4593;53.652;10.168;2023-04-28T04:53:13;4.10;88.30
9116;DHT22;4593;53.652;10.168;2023-04-28T04:55:39;4.20;87.20
9116;DHT22;4593;53.652;10.168;2023-04-28T04:58:05;4.30;86.90
9116;DHT22;4593;53.652;10.168;2023-04-28T05:00:30;4.40;85.80
9116;DHT22;4593;53.652;10.168;2023-04-28T05:02:56;4.40;84.80
9116;DHT22;4593;53.652;10.168;2023-04-28T05:05:22;4.50;84.90
9116;DHT22;4593;53.652;10.168;2023-04-28T05:07:48;4.60;84.20
9116;DHT22;4593;53.652;10.168;2023-04-28T05:10:13;4.70;83.60
9116;DHT22;4593;53.652;10.168;2023-04-28T05:12:39;4.80;82.60
9116;DHT22;4593;53.652;10.168;2023-04-28T05:15:08;4.80;81.90
9116;DHT22;4593;53.652;10.168;2023-04-28T05:17:33;4.90;81.30
9116;DHT22;4593;53.652;10.168;2023-04-28T05:19:59;5.00;80.80
9116;DHT22;4593;53.652;10.168;2023-04-28T05:22:25;5.10;80.20
9116;DHT22;4593;53.652;10.168;2023-04-28T05:24:51;5.20;79.20
9116;DHT22;4593;53.652;10.168;2023-04-28T05:27:17;5.20;78.30
9116;DHT22;4593;53.652;10.168;2023-04-28T05:29:43;5.30;78.30
9116;DHT22;4593;53.652;10.168;2023-04-28T05:32:09;5.30;78.10
9116;DHT22;4593;53.652;10.168;2023-04-28T05:34:35;5.40;77.90
9116;DHT22;4593;53.652;10.168;2023-04-28T05:37:00;5.50;77.50
9116;DHT22;4593;53.652;10.168;2023-04-28T05:39:26;5.60;76.50
9116;DHT22;4593;53.652;10.168;2023-04-28T05:41:52;5.70;76.00
9116;DHT22;4593;53.652;10.168;2023-04-28T05:44:17;5.80;76.00
9116;DHT22;4593;53.652;10.168;2023-04-28T05:46:43;5.80;75.30
9116;DHT22;4593;53.652;10.168;2023-04-28T05:49:09;5.90;74.60
9116;DHT22;4593;53.652;10.168;2023-04-28T05:51:35;5.90;73.40
9116;DHT22;4593;53.652;10.168;2023-04-28T05:54:01;6.00;73.50
9116;DHT22;4593;53.652;10.168;2023-04-28T05:56:27;6.00;73.00
9116;DHT22;4593;53.652;10.168;2023-04-28T05:58:53;6.10;72.50
9116;DHT22;4593;53.652;10.168;2023-04-28T06:01:19;6.20;72.80
9116;DHT22;4593;53.652;10.168;2023-04-28T06:03:45;6.20;71.70
9116;DHT22;4593;53.652;10.168;2023-04-28T06:06:11;6.30;72.20
9116;DHT22;4593;53.652;10.168;2023-04-28T06:08:37;6.30;71.80
9116;DHT22;4593;53.652;10.168;2023-04-28T06:11:03;6.50;71.40
9116;DHT22;4593;53.652;10.168;2023-04-28T06:13:29;6.60;70.90
9116;DHT22;4593;53.652;10.168;2023-04-28T06:15:55;6.70;69.90
9116;DHT22;4593;53.652;10.168;2023-04-28T06:18:20;6.80;69.70
9116;DHT22;4593;53.652;10.168;2023-04-28T06:20:47;7.00;70.10
9116;DHT22;4593;53.652;10.168;2023-04-28T06:23:13;7.00;68.50
9116;DHT22;4593;53.652;10.168;2023-04-28T06:25:39;7.10;68.10
9116;DHT22;4593;53.652;10.168;2023-04-28T06:28:04;7.20;67.10
9116;DHT22;4593;53.652;10.168;2023-04-28T06:30:31;7.40;66.30
9116;DHT22;4593;53.652;10.168;2023-04-28T06:32:57;7.50;66.80
9116;DHT22;4593;53.652;10.168;2023-04-28T06:35:23;7.60;66.40
9116;DHT22;4593;53.652;10.168;2023-04-28T06:37:48;7.80;65.10
9116;DHT22;4593;53.652;10.168;2023-04-28T06:40:14;7.90;64.30
9116;DHT22;4593;53.652;10.168;2023-04-28T06:42:40;8.10;64.10
9116;DHT22;4593;53.652;10.168;2023-04-28T06:45:06;8.20;63.20
9116;DHT22;4593;53.652;10.168;2023-04-28T06:47:32;8.40;63.90
9116;DHT22;4593;53.652;10.168;2023-04-28T06:49:57;8.50;62.50
9116;DHT22;4593;53.652;10.168;2023-04-28T06:52:23;8.70;62.80
9116;DHT22;4593;53.652;10.168;2023-04-28T06:54:49;8.70;62.00
9116;DHT22;4593;53.652;10.168;2023-04-28T06:57:16;9.00;61.20
9116;DHT22;4593;53.652;10.168;2023-04-28T06:59:41;9.10;59.40
9116;DHT22;4593;53.652;10.168;2023-04-28T07:02:09;9.30;59.40
9116;DHT22;4593;53.652;10.168;2023-04-28T07:04:35;9.50;59.00
9116;DHT22;4593;53.652;10.168;2023-04-28T07:07:01;9.70;59.10
9116;DHT22;4593;53.652;10.168;2023-04-28T07:09:26;9.80;57.00
9116;DHT22;4593;53.652;10.168;2023-04-28T07:11:52;9.90;57.60
9116;DHT22;4593;53.652;10.168;2023-04-28T07:14:18;10.20;57.00
9116;DHT22;4593;53.652;10.168;2023-04-28T07:16:43;10.30;55.50
9116;DHT22;4593;53.652;10.168;2023-04-28T07:19:09;10.20;54.60
9116;DHT22;4593;53.652;10.168;2023-04-28T07:21:35;10.30;55.00
9116;DHT22;4593;53.652;10.168;2023-04-28T07:24:00;10.30;53.80
9116;DHT22;4593;53.652;10.168;2023-04-28T07:26:28;10.30;54.70
9116;DHT22;4593;53.652;10.168;2023-04-28T07:28:53;10.50;53.90
9116;DHT22;4593;53.652;10.168;2023-04-28T07:31:19;10.80;57.10
9116;DHT22;4593;53.652;10.168;2023-04-28T07:33:46;11.00;54.80
9116;DHT22;4593;53.652;10.168;2023-04-28T07:36:11;11.30;52.40
9116;DHT22;4593;53.652;10.168;2023-04-28T07:38:37;11.40;50.90
9116;DHT22;4593;53.652;10.168;2023-04-28T07:41:03;11.70;52.80
9116;DHT22;4593;53.652;10.168;2023-04-28T07:43:29;12.00;50.80
9116;DHT22;4593;53.652;10.168;2023-04-28T07:45:55;12.10;49.90
9116;DHT22;4593;53.652;10.168;2023-04-28T07:48:20;11.70;50.30
9116;DHT22;4593;53.652;10.168;2023-04-28T07:50:46;11.70;49.60
9116;DHT22;4593;53.652;10.168;2023-04-28T07:53:12;11.90;50.50
9116;DHT22;4593;53.652;10.168;2023-04-28T07:55:38;12.20;50.50
9116;DHT22;4593;53.652;10.168;2023-04-28T07:58:06;12.20;49.60
9116;DHT22;4593;53.652;10.168;2023-04-28T08:00:32;12.30;50.10
9116;DHT22;4593;53.652;10.168;2023-04-28T08:02:58;12.40;48.60
9116;DHT22;4593;53.652;10.168;2023-04-28T08:05:24;12.70;50.00
9116;DHT22;4593;53.652;10.168;2023-04-28T08:07:50;12.70;48.30
9116;DHT22;4593;53.652;10.168;2023-04-28T08:10:15;12.50;48.60
9116;DHT22;4593;53.652;10.168;2023-04-28T08:12:41;12.40;46.90
9116;DHT22;4593;53.652;10.168;2023-04-28T08:15:08;12.40;47.20
9116;DHT22;4593;53.652;10.168;2023-04-28T08:17:34;12.30;46.80
9116;DHT22;4593;53.652;10.168;2023-04-28T08:20:00;12.30;48.80
9116;DHT22;4593;53.652;10.168;2023-04-28T08:22:25;12.60;47.60
9116;DHT22;4593;53.652;10.168;2023-04-28T08:24:51;12.70;48.70
9116;DHT22;4593;53.652;10.168;2023-04-28T08:27:17;12.80;46.40
9116;DHT22;4593;53.652;10.168;2023-04-28T08:29:43;12.80;46.70
9116;DHT22;4593;53.652;10.168;2023-04-28T08:32:08;12.90;45.90
9116;DHT22;4593;53.652;10.168;2023-04-28T08:34:34;12.70;46.70
9116;DHT22;4593;53.652;10.168;2023-04-28T08:37:00;13.00;45.50
9116;DHT22;4593;53.652;10.168;2023-04-28T08:39:26;13.30;44.20
9116;DHT22;4593;53.652;10.168;2023-04-28T08:41:52;13.40;45.70
9116;DHT22;4593;53.652;10.168;2023-04-28T08:44:18;13.50;43.10
9116;DHT22;4593;53.652;10.168;2023-04-28T08:46:45;13.40;43.00
9116;DHT22;4593;53.652;10.168;2023-04-28T08:49:15;13.20;43.70
9116;DHT22;4593;53.652;10.168;2023-04-28T08:51:49;13.20;43.80
9116;DHT22;4593;53.652;10.168;2023-04-28T08:54:15;13.50;43.10
9116;DHT22;4593;53.652;10.168;2023-04-28T08:56:42;13.80;42.80
9116;DHT22;4593;53.652;10.168;2023-04-28T08:59:11;14.00;42.90
9116;DHT22;4593;53.652;10.168;2023-04-28T09:01:37;14.10;42.40
9116;DHT22;4593;53.652;10.168;2023-04-28T09:04:03;14.00;41.30
9116;DHT22;4593;53.652;10.168;2023-04-28T09:06:35;14.00;42.00
9116;DHT22;4593;53.652;10.168;2023-04-28T09:09:30;14.20;44.10
9116;DHT22;4593;53.652;10.168;2023-04-28T09:11:58;14.90;46.00
9116;DHT22;4593;53.652;10.168;2023-04-28T09:14:29;14.90;40.50
9116;DHT22;4593;53.652;10.168;2023-04-28T09:16:55;14.70;41.80
9116;DHT22;4593;53.652;10.168;2023-04-28T09:19:21;14.60;42.50
9116;DHT22;4593;53.652;10.168;2023-04-28T09:21:55;14.40;40.80
9116;DHT22;4593;53.652;10.168;2023-04-28T09:24:37;14.40;41.60
9116;DHT22;4593;53.652;10.168;2023-04-28T09:27:06;14.20;41.90
9116;DHT22;4593;53.652;10.168;2023-04-28T09:29:36;14.20;42.30
9116;DHT22;4593;53.652;10.168;2023-04-28T09:34:55;15.30;42.10
9116;DHT22;4593;53.652;10.168;2023-04-28T09:37:23;15.50;39.80
9116;DHT22;4593;53.652;10.168;2023-04-28T09:39:53;15.50;39.80
9116;DHT22;4593;53.652;10.168;2023-04-28T09:42:45;15.40;40.40
9116;DHT22;4593;53.652;10.168;2023-04-28T09:45:13;15.70;41.50
9116;DHT22;4593;53.652;10.168;2023-04-28T09:47:45;15.80;40.50
9116;DHT22;4593;53.652;10.168;2023-04-28T09:50:12;15.40;39.30
9116;DHT22;4593;53.652;10.168;2023-04-28T09:52:54;14.90;40.70
9116;DHT22;4593;53.652;10.168;2023-04-28T09:55:21;14.50;41.50
9116;DHT22;4593;53.652;10.168;2023-04-28T09:57:48;14.70;43.80
9116;DHT22;4593;53.652;10.168;2023-04-28T10:00:16;14.80;42.30
9116;DHT22;4593;53.652;10.168;2023-04-28T10:02:43;15.10;42.30
9116;DHT22;4593;53.652;10.168;2023-04-28T10:05:09;15.60;41.60
9116;DHT22;4593;53.652;10.168;2023-04-28T10:07:35;15.70;40.20
9116;DHT22;4593;53.652;10.168;2023-04-28T10:10:02;15.60;40.20
9116;DHT22;4593;53.652;10.168;2023-04-28T10:12:28;15.30;40.80
9116;DHT22;4593;53.652;10.168;2023-04-28T10:14:54;15.30;40.10
9116;DHT22;4593;53.652;10.168;2023-04-28T10:17:22;15.20;41.80
9116;DHT22;4593;53.652;10.168;2023-04-28T10:19:53;15.20;40.00
9116;DHT22;4593;53.652;10.168;2023-04-28T10:25:28;15.40;42.00
9116;DHT22;4593;53.652;10.168;2023-04-28T10:27:55;15.70;39.40
9116;DHT22;4593;53.652;10.168;2023-04-28T10:30:23;15.40;39.90
9116;DHT22;4593;53.652;10.168;2023-04-28T10:35:43;15.30;40.30
9116;DHT22;4593;53.652;10.168;2023-04-28T10:38:14;15.50;39.70
9116;DHT22;4593;53.652;10.168;2023-04-28T10:40:41;15.00;40.20
9116;DHT22;4593;53.652;10.168;2023-04-28T10:43:31;14.80;41.30
9116;DHT22;4593;53.652;10.168;2023-04-28T10:58:46;15.20;39.90
9116;DHT22;4593;53.652;10.168;2023-04-28T11:03:48;15.80;39.50
9116;DHT22;4593;53.652;10.168;2023-04-28T11:06:37;15.90;40.30
9116;DHT22;4593;53.652;10.168;2023-04-28T11:19:23;16.50;38.60
9116;DHT22;4593;53.652;10.168;2023-04-28T11:21:49;16.50;38.00
9116;DHT22;4593;53.652;10.168;2023-04-28T11:24:15;16.60;39.80
9116;DHT22;4593;53.652;10.168;2023-04-28T11:26:41;16.80;39.80
9116;DHT22;4593;53.652;10.168;2023-04-28T11:29:08;16.80;39.20
9116;DHT22;4593;53.652;10.168;2023-04-28T11:31:35;16.90;38.60
9116;DHT22;4593;53.652;10.168;2023-04-28T11:34:09;17.40;39.30
9116;DHT22;4593;53.652;10.168;2023-04-28T11:36:41;17.70;39.10
9116;DHT22;4593;53.652;10.168;2023-04-28T11:39:11;17.70;40.00
9116;DHT22;4593;53.652;10.168;2023-04-28T11:41:41;17.30;38.20
9116;DHT22;4593;53.652;10.168;2023-04-28T11:44:13;17.20;38.60
9116;DHT22;4593;53.652;10.168;2023-04-28T11:46:48;17.40;38.70
9116;DHT22;4593;53.652;10.168;2023-04-28T11:49:25;17.30;38.30
9116;DHT22;4593;53.652;10.168;2023-04-28T11:51:54;17.00;38.10
9116;DHT22;4593;53.652;10.168;2023-04-28T11:54:25;17.00;39.30
9116;DHT22;4593;53.652;10.168;2023-04-28T11:56:52;16.70;39.00
9116;DHT22;4593;53.652;10.168;2023-04-28T11:59:21;16.80;40.20
9116;DHT22;4593;53.652;10.168;2023-04-28T12:01:50;17.10;39.00
9116;DHT22;4593;53.652;10.168;2023-04-28T12:07:00;16.40;40.00
9116;DHT22;4593;53.652;10.168;2023-04-28T12:09:26;16.50;39.80
9116;DHT22;4593;53.652;10.168;2023-04-28T12:12:00;16.40;41.00
9116;DHT22;4593;53.652;10.168;2023-04-28T12:14:27;16.80;40.40
9116;DHT22;4593;53.652;10.168;2023-04-28T12:16:54;17.30;39.40
9116;DHT22;4593;53.652;10.168;2023-04-28T12:19:21;17.30;37.50
9116;DHT22;4593;53.652;10.168;2023-04-28T12:22:04;17.30;38.10
9116;DHT22;4593;53.652;10.168;2023-04-28T12:24:30;17.50;40.10
9116;DHT22;4593;53.652;10.168;2023-04-28T12:27:19;17.10;39.80
9116;DHT22;4593;53.652;10.168;2023-04-28T12:29:49;17.20;39.80
9116;DHT22;4593;53.652;10.168;2023-04-28T12:32:16;17.50;39.40
9116;DHT22;4593;53.652;10.168;2023-04-28T12:34:44;17.40;37.80
9116;DHT22;4593;53.652;10.168;2023-04-28T12:37:10;17.30;38.70
9116;DHT22;4593;53.652;10.168;2023-04-28T12:39:38;17.40;40.20
9116;DHT22;4593;53.652;10.168;2023-04-28T12:42:05;17.40;38.70
9116;DHT22;4593;53.652;10.168;2023-04-28T12:44:35;17.30;38.80
9116;DHT22;4593;53.652;10.168;2023-04-28T12:47:10;16.90;38.70
9116;DHT22;4593;53.652;10.168;2023-04-28T12:49:36;16.60;39.10
9116;DHT22;4593;53.652;10.168;2023-04-28T12:52:03;16.10;40.20
9116;DHT22;4593;53.652;10.168;2023-04-28T12:54:29;16.00;40.90
9116;DHT22;4593;53.652;10.168;2023-04-28T12:56:55;16.00;40.50
9116;DHT22;4593;53.652;10.168;2023-04-28T12:59:22;16.00;40.60
9116;DHT22;4593;53.652;10.168;2023-04-28T13:01:48;16.00;41.00
9116;DHT22;4593;53.652;10.168;2023-04-28T13:04:15;15.50;40.60
9116;DHT22;4593;53.652;10.168;2023-04-28T13:06:41;15.30;41.90
9116;DHT22;4593;53.652;10.168;2023-04-28T13:09:12;15.50;42.80
9116;DHT22;4593;53.652;10.168;2023-04-28T13:11:40;15.40;42.20
9116;DHT22;4593;53.652;10.168;2023-04-28T13:14:05;15.10;42.90
9116;DHT22;4593;53.652;10.168;2023-04-28T13:16:31;15.10;43.20
9116;DHT22;4593;53.652;10.168;2023-04-28T13:18:58;15.20;43.30
9116;DHT22;4593;53.652;10.168;2023-04-28T13:21:24;15.20;43.50
9116;DHT22;4593;53.652;10.168;2023-04-28T13:23:54;15.20;44.30
9116;DHT22;4593;53.652;10.168;2023-04-28T13:26:21;15.20;44.40
9116;DHT22;4593;53.652;10.168;2023-04-28T13:28:49;15.30;44.00
9116;DHT22;4593;53.652;10.168;2023-04-28T13:31:15;15.50;43.60
9116;DHT22;4593;53.652;10.168;2023-04-28T13:33:41;15.60;43.30
9116;DHT22;4593;53.652;10.168;2023-04-28T13:36:07;15.60;43.40
9116;DHT22;4593;53.652;10.168;2023-04-28T13:38:34;15.70;43.50
9116;DHT22;4593;53.652;10.168;2023-04-28T13:41:00;15.60;43.10
9116;DHT22;4593;53.652;10.168;2023-04-28T13:43:26;15.40;44.10
9116;DHT22;4593;53.652;10.168;2023-04-28T13:45:51;15.30;43.90
9116;DHT22;4593;53.652;10.168;2023-04-28T13:48:17;15.20;43.80
9116;DHT22;4593;53.652;10.168;2023-04-28T13:50:43;15.10;44.70
9116;DHT22;4593;53.652;10.168;2023-04-28T13:53:09;15.10;44.70
9116;DHT22;4593;53.652;10.168;2023-04-28T13:55:35;15.10;44.40
9116;DHT22;4593;53.652;10.168;2023-04-28T13:58:01;15.20;45.40
9116;DHT22;4593;53.652;10.168;2023-04-28T14:00:38;15.50;44.60
9116;DHT22;4593;53.652;10.168;2023-04-28T14:03:03;15.70;43.80
9116;DHT22;4593;53.652;10.168;2023-04-28T14:05:29;15.70;44.00
9116;DHT22;4593;53.652;10.168;2023-04-28T14:07:56;15.90;43.90
9116;DHT22;4593;53.652;10.168;2023-04-28T14:10:21;15.90;43.10
9116;DHT22;4593;53.652;10.168;2023-04-28T14:12:48;15.60;43.30
9116;DHT22;4593;53.652;10.168;2023-04-28T14:15:14;15.50;43.80
9116;DHT22;4593;53.652;10.168;2023-04-28T14:17:41;15.50;45.20
9116;DHT22;4593;53.652;10.168;2023-04-28T14:20:07;15.60;44.90
9116;DHT22;4593;53.652;10.168;2023-04-28T14:22:38;15.50;44.00
9116;DHT22;4593;53.652;10.168;2023-04-28T14:25:05;15.60;44.80
9116;DHT22;4593;53.652;10.168;2023-04-28T14:27:31;15.70;43.70
9116;DHT22;4593;53.652;10.168;2023-04-28T14:29:58;15.70;43.50
9116;DHT22;4593;53.652;10.168;2023-04-28T14:32:24;16.00;44.90
9116;DHT22;4593;53.652;10.168;2023-04-28T14:34:50;16.40;43.20
9116;DHT22;4593;53.652;10.168;2023-04-28T14:37:16;16.60;42.70
9116;DHT22;4593;53.652;10.168;2023-04-28T14:39:45;16.30;43.00
9116;DHT22;4593;53.652;10.168;2023-04-28T14:42:11;16.20;43.20
9116;DHT22;4593;53.652;10.168;2023-04-28T14:44:37;16.00;43.30
9116;DHT22;4593;53.652;10.168;2023-04-28T14:47:03;15.90;44.40
9116;DHT22;4593;53.652;10.168;2023-04-28T14:49:29;15.90;44.00
9116;DHT22;4593;53.652;10.168;2023-04-28T14:51:55;16.00;44.90
9116;DHT22;4593;53.652;10.168;2023-04-28T14:54:21;15.80;44.40
9116;DHT22;4593;53.652;10.168;2023-04-28T14:56:49;15.60;45.00
9116;DHT22;4593;53.652;10.168;2023-04-28T14:59:15;15.60;46.10
9116;DHT22;4593;53.652;10.168;2023-04-28T15:01:41;15.60;46.60
9116;DHT22;4593;53.652;10.168;2023-04-28T15:04:07;15.70;45.60
9116;DHT22;4593;53.652;10.168;2023-04-28T15:06:34;15.80;45.30
9116;DHT22;4593;53.652;10.168;2023-04-28T15:09:00;15.80;45.60
9116;DHT22;4593;53.652;10.168;2023-04-28T15:11:26;15.80;45.60
9116;DHT22;4593;53.652;10.168;2023-04-28T15:13:52;15.70;46.10
9116;DHT22;4593;53.652;10.168;2023-04-28T15:16:18;15.70;46.90
9116;DHT22;4593;53.652;10.168;2023-04-28T15:18:43;15.60;47.50
9116;DHT22;4593;53.652;10.168;2023-04-28T15:21:10;15.60;48.50
9116;DHT22;4593;53.652;10.168;2023-04-28T15:23:36;15.60;48.30
9116;DHT22;4593;53.652;10.168;2023-04-28T15:26:02;15.70;49.80
9116;DHT22;4593;53.652;10.168;2023-04-28T15:28:29;15.80;49.90
9116;DHT22;4593;53.652;10.168;2023-04-28T15:30:54;15.70;49.80
9116;DHT22;4593;53.652;10.168;2023-04-28T15:33:20;15.60;49.20
9116;DHT22;4593;53.652;10.168;2023-04-28T15:35:46;15.40;50.50
9116;DHT22;4593;53.652;10.168;2023-04-28T15:38:12;15.40;50.40
9116;DHT22;4593;53.652;10.168;2023-04-28T15:40:38;15.10;51.20
9116;DHT22;4593;53.652;10.168;2023-04-28T15:43:05;14.60;54.20
9116;DHT22;4593;53.652;10.168;2023-04-28T15:45:32;14.40;56.50
9116;DHT22;4593;53.652;10.168;2023-04-28T15:47:59;14.20;56.50
9116;DHT22;4593;53.652;10.168;2023-04-28T15:50:26;14.10;57.60
9116;DHT22;4593;53.652;10.168;2023-04-28T15:52:52;14.00;57.50
9116;DHT22;4593;53.652;10.168;2023-04-28T15:55:19;14.10;56.90
9116;DHT22;4593;53.652;10.168;2023-04-28T15:57:46;14.20;56.90
9116;DHT22;4593;53.652;10.168;2023-04-28T16:00:13;14.30;57.30
9116;DHT22;4593;53.652;10.168;2023-04-28T16:02:40;14.20;57.60
9116;DHT22;4593;53.652;10.168;2023-04-28T16:05:06;14.10;57.60
9116;DHT22;4593;53.652;10.168;2023-04-28T16:07:33;14.10;57.70
9116;DHT22;4593;53.652;10.168;2023-04-28T16:10:12;14.10;58.60
9116;DHT22;4593;53.652;10.168;2023-04-28T16:12:39;14.00;58.90
9116;DHT22;4593;53.652;10.168;2023-04-28T16:15:06;13.90;59.70
9116;DHT22;4593;53.652;10.168;2023-04-28T16:17:33;13.90;60.00
9116;DHT22;4593;53.652;10.168;2023-04-28T16:20:00;13.90;60.50
9116;DHT22;4593;53.652;10.168;2023-04-28T16:22:26;13.90;60.00
9116;DHT22;4593;53.652;10.168;2023-04-28T16:24:55;13.90;60.10
9116;DHT22;4593;53.652;10.168;2023-04-28T16:27:21;13.80;60.30